createdAt,value
2022-12-03T00:01:21.635Z,85.03
2022-12-03T00:05:48.721Z,80.07
2022-12-03T00:10:12.607Z,79.78
2022-12-03T00:14:37.757Z,76.78
2022-12-03T00:19:02.220Z,78.82
2022-12-03T00:23:25.207Z,78.03
2022-12-03T00:27:49.186Z,76.07
2022-12-03T00:32:11.331Z,74.03
2022-12-03T00:36:33.109Z,72.55
2022-12-03T00:40:55.028Z,66.97
2022-12-03T00:45:18.020Z,79.32
2022-12-03T00:49:40.016Z,72.10
2022-12-03T00:54:02.130Z,71.55
2022-12-03T00:58:24.089Z,74.05
2022-12-03T01:02:46.077Z,67.82
2022-12-03T01:07:07.922Z,70.20
2022-12-03T01:11:39.344Z,69.90
2022-12-03T01:16:01.369Z,67.70
2022-12-03T01:20:23.368Z,68.50
2022-12-03T01:24:48.126Z,66.90
2022-12-03T01:29:09.973Z,67.90
2022-12-03T01:33:32.113Z,64.55
2022-12-03T01:37:54.040Z,66.53
2022-12-03T01:42:26.971Z,68.95
2022-12-03T01:46:50.349Z,65.22
2022-12-03T01:51:14.241Z,70.68
2022-12-03T01:55:36.351Z,66.43
2022-12-03T02:00:00.077Z,66.88
2022-12-03T02:04:23.648Z,65.40
2022-12-03T02:08:46.764Z,61.20
2022-12-03T02:13:10.617Z,66.80
2022-12-03T02:17:32.953Z,61.65
2022-12-03T02:22:15.187Z,61.15
2022-12-03T02:26:37.064Z,63.33
2022-12-03T02:30:59.185Z,66.95
2022-12-03T02:35:25.521Z,60.53
2022-12-03T02:39:53.488Z,57.05
2022-12-03T02:44:15.442Z,55.95
2022-12-03T02:48:40.147Z,63.65
2022-12-03T02:53:07.918Z,60.13
2022-12-03T02:57:30.957Z,61.03
2022-12-03T03:01:56.300Z,55.80
2022-12-03T03:06:22.179Z,56.13
2022-12-03T03:10:45.032Z,60.28
2022-12-03T03:15:14.679Z,53.38
2022-12-03T03:19:37.453Z,54.47
2022-12-03T03:24:03.525Z,58.28
2022-12-03T03:28:26.924Z,57.92
2022-12-03T03:32:54.506Z,58.25
2022-12-03T03:37:16.481Z,57.65
2022-12-03T03:41:43.736Z,58.50
2022-12-03T03:46:07.202Z,58.88
2022-12-03T03:50:30.291Z,57.05
2022-12-03T03:54:52.600Z,56.15
2022-12-03T03:59:15.079Z,60.00
2022-12-03T04:03:37.145Z,56.10
2022-12-03T04:08:06.156Z,56.67
2022-12-03T04:12:47.144Z,56.70
2022-12-03T04:17:09.021Z,60.05
2022-12-03T04:21:53.507Z,64.22
2022-12-03T04:26:34.576Z,62.65
2022-12-03T04:30:56.589Z,65.45
2022-12-03T04:35:37.295Z,64.53
2022-12-03T04:40:01.448Z,65.22
2022-12-03T04:44:38.395Z,65.25
2022-12-03T04:49:00.333Z,65.82
2022-12-03T04:53:22.474Z,61.85
2022-12-03T04:57:44.567Z,64.38
2022-12-03T05:02:07.310Z,70.22
2022-12-03T05:06:29.319Z,67.70
2022-12-03T05:10:51.363Z,68.45
2022-12-03T05:15:16.207Z,78.18
2022-12-03T05:19:56.752Z,70.10
2022-12-03T05:24:18.666Z,71.18
2022-12-03T05:28:41.445Z,71.28
2022-12-03T05:33:03.520Z,71.15
2022-12-03T05:37:25.412Z,65.82
2022-12-03T05:42:06.302Z,68.43
2022-12-03T05:46:35.704Z,73.95
2022-12-03T05:50:57.372Z,70.63
2022-12-03T05:55:20.124Z,68.20
2022-12-03T05:59:41.855Z,66.70
2022-12-03T06:04:04.196Z,71.68
2022-12-03T06:08:25.981Z,64.70
2022-12-03T06:12:48.567Z,74.75
2022-12-03T06:17:13.723Z,64.18
2022-12-03T06:21:35.544Z,70.93
2022-12-03T06:26:00.807Z,63.78
2022-12-03T06:30:23.477Z,67.18
2022-12-03T06:34:48.864Z,67.93
2022-12-03T06:39:10.647Z,72.72
2022-12-03T06:43:32.650Z,74.75
2022-12-03T06:47:55.322Z,69.45
2022-12-03T06:52:20.510Z,81.00
2022-12-03T06:56:45.446Z,73.57
2022-12-03T07:01:07.595Z,68.57
2022-12-03T07:06:43.949Z,65.63
2022-12-03T07:11:26.015Z,61.90
2022-12-03T07:15:47.978Z,64.25
2022-12-03T07:20:10.784Z,64.68
2022-12-03T07:24:32.824Z,61.72
2022-12-03T07:28:54.796Z,63.75
2022-12-03T07:33:16.732Z,60.95
2022-12-03T07:37:38.859Z,61.38
2022-12-03T07:42:00.928Z,61.80
2022-12-03T07:46:23.466Z,66.03
2022-12-03T07:50:45.352Z,65.13
2022-12-03T07:55:07.953Z,60.78
2022-12-03T07:59:30.489Z,71.35
2022-12-03T08:03:52.637Z,57.80
2022-12-03T08:08:14.787Z,58.28
2022-12-03T08:12:42.057Z,64.75
2022-12-03T08:17:11.591Z,57.72
2022-12-03T08:21:36.382Z,63.92
2022-12-03T08:26:02.248Z,69.68
2022-12-03T08:30:24.371Z,64.28
2022-12-03T08:34:46.060Z,62.45
2022-12-03T08:39:34.701Z,64.05
2022-12-03T08:43:58.408Z,76.70
2022-12-03T08:48:38.230Z,66.72
2022-12-03T08:53:14.454Z,62.08
2022-12-03T08:57:36.649Z,62.38
2022-12-03T09:02:01.985Z,62.50
2022-12-03T09:06:23.638Z,63.47
2022-12-03T09:10:45.814Z,56.38
2022-12-03T09:15:08.770Z,56.20
2022-12-03T09:19:33.623Z,56.88
2022-12-03T09:23:55.409Z,55.70
2022-12-03T09:28:21.655Z,54.97
2022-12-03T09:32:44.799Z,54.13
2022-12-03T09:37:07.467Z,56.95
2022-12-03T09:41:29.494Z,56.78
2022-12-03T09:45:51.410Z,57.25
2022-12-03T09:50:24.236Z,53.40
2022-12-03T09:54:48.445Z,56.60
2022-12-03T09:59:15.593Z,58.53
2022-12-03T10:03:41.501Z,57.42
2022-12-03T10:08:18.589Z,54.75
2022-12-03T10:12:40.384Z,61.22
2022-12-03T10:17:02.311Z,55.22
2022-12-03T10:21:37.988Z,52.33
2022-12-03T10:26:03.752Z,56.38
2022-12-03T10:30:28.582Z,58.22
2022-12-03T10:34:50.893Z,75.70
2022-12-03T10:39:17.074Z,57.40
2022-12-03T10:43:38.976Z,56.30
2022-12-03T10:48:07.371Z,50.13
2022-12-03T10:52:29.083Z,56.78
2022-12-03T10:56:52.713Z,49.83
2022-12-03T11:01:25.469Z,57.33
2022-12-03T11:05:48.090Z,52.95
2022-12-03T11:10:18.684Z,51.20
2022-12-03T11:14:53.094Z,52.42
2022-12-03T11:19:18.190Z,59.65
2022-12-03T11:23:46.109Z,56.03
2022-12-03T11:28:13.980Z,79.20
2022-12-03T11:32:38.542Z,58.08
2022-12-03T11:37:12.499Z,59.45
2022-12-03T11:41:35.856Z,62.47
2022-12-03T11:46:09.946Z,60.63
2022-12-03T11:50:40.437Z,64.68
2022-12-03T11:55:18.981Z,58.00
2022-12-03T11:59:59.192Z,59.38
2022-12-03T12:04:34.993Z,66.47
2022-12-03T12:09:00.618Z,62.05
2022-12-03T12:13:31.772Z,61.42
2022-12-03T12:17:53.634Z,62.50
2022-12-03T12:22:24.234Z,60.33
2022-12-03T12:26:52.439Z,67.43
2022-12-03T12:31:14.341Z,66.50
2022-12-03T12:35:37.025Z,61.85
2022-12-03T12:40:00.774Z,64.47
2022-12-03T12:44:23.654Z,60.78
2022-12-03T12:48:45.219Z,67.57
2022-12-03T12:53:33.090Z,62.35
2022-12-03T12:58:00.031Z,61.00
2022-12-03T13:02:31.230Z,63.00
2022-12-03T13:06:55.640Z,68.47
2022-12-03T13:11:41.380Z,68.82
2022-12-03T13:16:11.823Z,69.38
2022-12-03T13:20:33.879Z,70.43
2022-12-03T13:24:58.640Z,78.40
2022-12-03T13:29:22.837Z,69.70
2022-12-03T13:33:44.761Z,70.38
2022-12-03T13:38:15.636Z,75.05
2022-12-03T13:42:45.221Z,71.13
2022-12-03T13:47:19.587Z,65.47
2022-12-03T13:51:42.964Z,73.93
2022-12-03T13:56:27.727Z,73.65
2022-12-03T14:00:49.740Z,65.18
2022-12-03T14:05:11.725Z,70.15
2022-12-03T14:09:35.272Z,60.47
2022-12-03T14:13:57.429Z,56.58
2022-12-03T14:18:19.522Z,59.55
2022-12-03T14:22:41.404Z,61.08
2022-12-03T14:27:03.311Z,55.95
2022-12-03T14:31:25.416Z,60.47
2022-12-03T14:35:47.442Z,57.25
2022-12-03T14:40:09.892Z,57.70
2022-12-03T14:44:31.574Z,54.13
2022-12-03T14:48:53.481Z,51.00
2022-12-03T14:53:15.514Z,32.63
2022-12-03T14:57:37.461Z,24.35
2022-12-03T15:01:59.473Z,22.27
2022-12-03T15:06:21.208Z,20.17
2022-12-03T15:10:43.186Z,18.75
2022-12-03T15:15:05.777Z,18.42
2022-12-03T15:19:27.678Z,20.13
2022-12-03T15:23:49.694Z,17.55
2022-12-03T15:28:11.821Z,17.52
2022-12-03T15:32:33.843Z,20.40
2022-12-03T15:36:55.883Z,19.25
2022-12-03T15:41:21.465Z,19.13
2022-12-03T15:45:43.582Z,20.65
2022-12-03T15:50:06.665Z,20.33
2022-12-03T15:54:28.522Z,18.70
2022-12-03T15:58:50.628Z,18.20
2022-12-03T16:03:12.509Z,21.25
2022-12-03T16:07:35.143Z,21.80
2022-12-03T16:11:57.156Z,22.52
2022-12-03T16:16:19.055Z,20.92
2022-12-03T16:20:41.160Z,22.75
2022-12-03T16:25:04.451Z,22.20
2022-12-03T16:29:26.387Z,22.17
2022-12-03T16:33:49.069Z,24.00
2022-12-03T16:38:10.814Z,23.10
2022-12-03T16:42:32.862Z,24.80
2022-12-03T16:46:54.818Z,23.70
2022-12-03T16:51:19.414Z,24.50
2022-12-03T16:55:41.461Z,23.92
2022-12-03T17:00:05.536Z,25.33
2022-12-03T17:04:27.685Z,25.30
2022-12-03T17:08:50.114Z,21.90
2022-12-03T17:13:12.241Z,25.15
2022-12-03T17:17:34.243Z,23.10
2022-12-03T17:21:56.131Z,24.25
2022-12-03T17:26:19.779Z,23.38
2022-12-03T17:30:41.714Z,23.73
2022-12-03T17:35:04.506Z,25.48
2022-12-03T17:39:26.304Z,23.83
2022-12-03T17:43:49.643Z,24.27
2022-12-03T17:48:11.503Z,21.88
2022-12-03T17:52:33.549Z,20.80
2022-12-03T17:56:55.473Z,20.23
2022-12-03T18:01:17.467Z,19.55
2022-12-03T18:05:40.027Z,23.17
2022-12-03T18:10:01.914Z,21.73
2022-12-03T18:14:23.656Z,20.08
2022-12-03T18:18:45.846Z,23.77
2022-12-03T18:23:07.928Z,25.42
2022-12-03T18:27:29.761Z,24.80
2022-12-03T18:31:51.810Z,22.83
2022-12-03T18:36:23.139Z,23.90
2022-12-03T18:40:46.382Z,24.13
2022-12-03T18:45:13.021Z,21.73
2022-12-03T18:49:34.497Z,24.55
2022-12-03T18:53:56.605Z,25.23
2022-12-03T18:58:19.395Z,21.55
2022-12-03T19:07:23.050Z,21.90
2022-12-03T19:11:45.202Z,22.52
2022-12-03T19:16:08.914Z,23.70
2022-12-03T19:20:30.891Z,21.23
2022-12-03T19:24:52.689Z,20.52
2022-12-03T19:29:14.714Z,21.92
2022-12-03T19:33:36.984Z,20.58
2022-12-03T19:37:58.742Z,23.08
2022-12-03T19:42:20.920Z,22.67
2022-12-03T19:46:43.822Z,20.15
2022-12-03T19:51:33.062Z,21.52
2022-12-03T19:55:49.131Z,23.05
2022-12-03T20:00:12.255Z,18.38
2022-12-03T20:04:37.540Z,21.90
2022-12-03T20:09:04.801Z,21.08
2022-12-03T20:13:27.136Z,20.65
2022-12-03T20:17:50.796Z,19.63
2022-12-03T20:22:12.809Z,20.05
2022-12-03T20:26:35.032Z,20.50
2022-12-03T20:31:09.646Z,20.33
2022-12-03T20:35:33.080Z,20.48
2022-12-03T20:39:55.313Z,21.02
2022-12-03T20:44:17.541Z,19.50
2022-12-03T20:48:40.962Z,19.10
2022-12-03T20:53:23.624Z,18.38
2022-12-03T20:57:44.886Z,18.77
2022-12-03T21:02:06.990Z,18.48
2022-12-03T21:06:30.133Z,19.23
2022-12-03T21:10:51.949Z,20.52
2022-12-03T21:15:13.873Z,18.95
2022-12-03T21:19:36.070Z,19.48
2022-12-03T21:23:58.246Z,21.30
2022-12-03T21:28:20.068Z,18.92
2022-12-03T21:32:42.332Z,20.55
2022-12-03T21:37:04.672Z,20.02
2022-12-03T21:41:26.957Z,23.02
2022-12-03T21:45:49.625Z,22.92
2022-12-03T21:50:12.058Z,19.13
2022-12-03T21:54:34.232Z,18.83
2022-12-03T21:58:56.149Z,19.97
2022-12-03T22:03:18.522Z,19.77
2022-12-03T22:07:41.027Z,20.33
2022-12-03T22:12:03.190Z,18.88
2022-12-03T22:16:25.381Z,21.67
2022-12-03T22:20:47.084Z,20.38
2022-12-03T22:25:09.489Z,19.40
2022-12-03T22:29:32.444Z,19.00
2022-12-03T22:33:54.378Z,20.33
2022-12-03T22:38:16.315Z,18.98
2022-12-03T22:42:38.158Z,21.40
2022-12-03T22:46:59.969Z,20.77
2022-12-03T22:51:25.481Z,19.27
2022-12-03T22:55:56.926Z,19.80
2022-12-03T23:00:31.399Z,20.67
2022-12-03T23:04:55.810Z,17.50
2022-12-03T23:09:17.549Z,18.17
2022-12-03T23:13:39.481Z,17.63
2022-12-03T23:18:01.410Z,17.08
2022-12-03T23:22:23.067Z,16.45
2022-12-03T23:26:45.065Z,17.30
2022-12-03T23:31:33.420Z,16.83
2022-12-03T23:35:55.616Z,15.70
2022-12-03T23:40:17.783Z,18.10
2022-12-03T23:44:39.709Z,19.45
2022-12-03T23:49:01.587Z,22.15
2022-12-03T23:53:23.538Z,16.65
2022-12-03T23:57:45.953Z,18.42
